createdAt,value
2022-09-22T00:01:41.378Z,0.73
2022-09-22T00:04:13.811Z,1.02
2022-09-22T00:06:44.088Z,0.70
2022-09-22T00:09:13.573Z,0.88
2022-09-22T00:14:10.529Z,1.00
2022-09-22T00:16:39.405Z,1.00
2022-09-22T00:19:07.753Z,0.90
2022-09-22T00:21:34.977Z,0.57
2022-09-22T00:24:03.659Z,0.90
2022-09-22T00:26:31.257Z,0.90
2022-09-22T00:28:58.152Z,0.90
2022-09-22T00:31:25.966Z,0.88
2022-09-22T00:33:54.422Z,0.93
2022-09-22T00:36:24.203Z,0.73
2022-09-22T00:38:51.623Z,1.00
2022-09-22T00:41:27.786Z,0.90
2022-09-22T00:44:15.874Z,0.90
2022-09-22T00:46:46.009Z,0.90
2022-09-22T00:49:15.565Z,1.00
2022-09-22T00:51:44.684Z,0.80
2022-09-22T00:54:18.222Z,1.02
2022-09-22T00:56:53.379Z,0.90
2022-09-22T00:59:24.902Z,1.15
2022-09-22T01:01:52.056Z,1.17
2022-09-22T01:04:18.871Z,0.90
2022-09-22T01:06:46.445Z,0.90
2022-09-22T01:09:14.507Z,0.95
2022-09-22T01:11:42.375Z,1.00
2022-09-22T01:14:27.717Z,0.90
2022-09-22T01:17:06.088Z,0.85
2022-09-22T01:19:51.286Z,1.17
2022-09-22T01:22:39.580Z,0.98
2022-09-22T01:25:15.211Z,1.10
2022-09-22T01:28:02.805Z,1.00
2022-09-22T01:30:53.710Z,0.90
2022-09-22T01:33:50.779Z,0.90
2022-09-22T01:36:24.759Z,1.00
2022-09-22T01:39:09.530Z,0.75
2022-09-22T01:42:05.978Z,0.90
2022-09-22T01:44:43.625Z,1.08
2022-09-22T01:47:24.504Z,1.00
2022-09-22T01:49:56.990Z,0.90
2022-09-22T01:52:28.767Z,0.95
2022-09-22T01:55:04.127Z,0.93
2022-09-22T01:58:05.629Z,1.00
2022-09-22T02:00:32.964Z,1.00
2022-09-22T02:03:11.389Z,1.00
2022-09-22T02:05:44.776Z,0.67
2022-09-22T02:08:37.924Z,0.93
2022-09-22T02:11:11.686Z,1.00
2022-09-22T02:13:38.626Z,0.93
2022-09-22T02:16:08.056Z,0.98
2022-09-22T02:18:50.189Z,0.85
2022-09-22T02:21:18.305Z,1.00
2022-09-22T02:23:46.720Z,0.90
2022-09-22T02:26:18.142Z,1.10
2022-09-22T02:28:45.485Z,0.95
2022-09-22T02:31:21.164Z,1.00
2022-09-22T02:33:49.751Z,1.20
2022-09-22T02:36:24.706Z,1.10
2022-09-22T02:39:18.916Z,1.10
2022-09-22T02:42:17.506Z,0.93
2022-09-22T02:44:47.833Z,0.83
2022-09-22T02:47:32.362Z,1.08
2022-09-22T02:50:00.758Z,0.90
2022-09-22T02:52:27.389Z,0.90
2022-09-22T02:54:54.529Z,1.05
2022-09-22T02:57:21.258Z,1.10
2022-09-22T02:59:48.003Z,0.93
2022-09-22T03:02:14.705Z,1.13
2022-09-22T03:04:41.558Z,0.90
2022-09-22T03:07:08.169Z,0.95
2022-09-22T03:09:34.773Z,0.93
2022-09-22T03:12:01.747Z,1.20
2022-09-22T03:14:28.346Z,1.05
2022-09-22T03:16:55.082Z,0.88
2022-09-22T03:19:21.666Z,1.40
2022-09-22T03:21:48.331Z,1.02
2022-09-22T03:24:14.977Z,1.17
2022-09-22T03:26:41.647Z,1.17
2022-09-22T03:29:08.606Z,1.00
2022-09-22T03:31:35.591Z,1.20
2022-09-22T03:34:02.346Z,1.17
2022-09-22T03:36:28.893Z,1.10
2022-09-22T03:38:55.602Z,1.10
2022-09-22T03:41:22.230Z,1.38
2022-09-22T03:43:48.924Z,0.90
2022-09-22T03:46:15.987Z,1.10
2022-09-22T03:48:45.166Z,1.30
2022-09-22T03:53:39.214Z,1.20
2022-09-22T03:56:16.528Z,1.25
2022-09-22T03:58:43.763Z,1.40
2022-09-22T04:01:11.451Z,1.10
2022-09-22T04:03:39.063Z,0.95
2022-09-22T04:06:05.976Z,0.90
2022-09-22T04:08:32.954Z,1.20
2022-09-22T04:11:01.006Z,1.10
2022-09-22T04:13:27.726Z,1.60
2022-09-22T04:15:54.303Z,1.30
2022-09-22T04:18:22.039Z,1.05
2022-09-22T04:20:48.750Z,1.00
2022-09-22T04:23:17.283Z,1.20
2022-09-22T04:25:43.994Z,1.30
2022-09-22T04:28:10.666Z,1.42
2022-09-22T04:30:37.513Z,1.10
2022-09-22T04:33:04.580Z,1.10
2022-09-22T04:35:31.598Z,1.30
2022-09-22T04:37:58.606Z,1.42
2022-09-22T04:40:25.508Z,1.38
2022-09-22T04:42:52.456Z,1.20
2022-09-22T04:45:19.317Z,1.10
2022-09-22T04:47:51.034Z,1.10
2022-09-22T04:50:19.887Z,1.13
2022-09-22T04:52:48.399Z,1.23
2022-09-22T04:55:15.589Z,1.50
2022-09-22T04:57:47.174Z,1.23
2022-09-22T05:00:14.550Z,1.08
2022-09-22T05:02:41.292Z,1.20
2022-09-22T05:05:08.407Z,1.30
2022-09-22T05:07:35.557Z,1.10
2022-09-22T05:10:02.940Z,1.33
2022-09-22T05:12:29.663Z,1.50
2022-09-22T05:14:58.100Z,1.40
2022-09-22T05:17:24.734Z,1.80
2022-09-22T05:19:52.975Z,1.42
2022-09-22T05:22:20.562Z,1.23
2022-09-22T05:24:48.789Z,1.40
2022-09-22T05:27:15.469Z,1.33
2022-09-22T05:29:42.681Z,1.55
2022-09-22T05:32:09.358Z,1.40
2022-09-22T05:34:36.140Z,1.65
2022-09-22T05:37:02.854Z,1.15
2022-09-22T05:39:29.870Z,1.40
2022-09-22T05:41:56.493Z,1.30
2022-09-22T05:44:23.630Z,1.40
2022-09-22T05:46:50.380Z,1.30
2022-09-22T05:49:16.952Z,1.42
2022-09-22T05:51:43.791Z,1.52
2022-09-22T05:54:10.550Z,1.20
2022-09-22T05:56:37.317Z,1.40
2022-09-22T05:59:04.025Z,1.58
2022-09-22T06:01:31.086Z,1.33
2022-09-22T06:03:57.939Z,1.52
2022-09-22T06:06:24.692Z,1.27
2022-09-22T06:08:51.373Z,1.30
2022-09-22T06:11:17.918Z,1.60
2022-09-22T06:13:44.608Z,1.55
2022-09-22T06:16:11.314Z,1.20
2022-09-22T06:18:37.972Z,1.30
2022-09-22T06:21:04.621Z,1.50
2022-09-22T06:23:31.997Z,1.33
2022-09-22T06:25:59.511Z,1.30
2022-09-22T06:28:26.168Z,1.55
2022-09-22T06:30:52.832Z,1.25
2022-09-22T06:33:19.886Z,1.40
2022-09-22T06:35:46.636Z,1.40
2022-09-22T06:38:15.115Z,1.45
2022-09-22T06:40:42.749Z,1.30
2022-09-22T06:43:17.160Z,1.25
2022-09-22T06:45:45.030Z,2.08
2022-09-22T06:48:12.060Z,1.45
2022-09-22T06:50:40.981Z,1.35
2022-09-22T06:53:11.715Z,1.50
2022-09-22T06:55:41.663Z,1.38
2022-09-22T06:58:09.414Z,1.30
2022-09-22T07:00:37.235Z,1.38
2022-09-22T07:03:13.418Z,1.40
2022-09-22T07:05:40.013Z,1.30
2022-09-22T07:08:08.964Z,1.30
2022-09-22T07:10:38.004Z,1.10
2022-09-22T07:13:06.459Z,1.23
2022-09-22T07:15:35.545Z,1.55
2022-09-22T07:18:03.135Z,1.42
2022-09-22T07:20:30.508Z,1.42
2022-09-22T07:23:00.716Z,1.38
2022-09-22T07:25:28.781Z,1.50
2022-09-22T07:27:58.235Z,1.50
2022-09-22T07:32:53.250Z,1.85
2022-09-22T07:35:20.044Z,1.67
2022-09-22T07:37:46.683Z,1.58
2022-09-22T07:40:14.625Z,1.70
2022-09-22T07:42:41.496Z,1.50
2022-09-22T07:45:12.773Z,1.40
2022-09-22T07:47:58.306Z,1.40
2022-09-22T07:50:24.932Z,1.67
2022-09-22T07:52:54.851Z,1.70
2022-09-22T07:55:24.156Z,1.50
2022-09-22T08:00:33.062Z,1.70
2022-09-22T08:03:01.295Z,1.73
2022-09-22T08:05:29.042Z,1.30
2022-09-22T08:07:58.877Z,1.60
2022-09-22T08:10:26.154Z,1.58
2022-09-22T08:12:58.171Z,1.60
2022-09-22T08:15:27.401Z,1.50
2022-09-22T08:20:29.202Z,1.42
2022-09-22T08:23:02.972Z,1.30
2022-09-22T08:25:30.510Z,1.40
2022-09-22T08:27:57.431Z,1.30
2022-09-22T08:30:23.996Z,1.38
2022-09-22T08:32:50.622Z,1.50
2022-09-22T08:35:17.482Z,1.27
2022-09-22T08:37:44.397Z,1.10
2022-09-22T08:40:23.921Z,1.52
2022-09-22T08:42:54.462Z,1.42
2022-09-22T08:45:47.863Z,1.42
2022-09-22T08:48:57.535Z,1.38
2022-09-22T08:51:51.971Z,1.45
2022-09-22T08:54:21.794Z,1.42
2022-09-22T08:57:02.564Z,1.63
2022-09-22T08:59:44.807Z,1.45
2022-09-22T09:02:45.805Z,1.50
2022-09-22T09:05:30.329Z,1.50
2022-09-22T09:07:58.719Z,1.17
2022-09-22T09:10:38.804Z,1.55
2022-09-22T09:13:42.738Z,1.38
2022-09-22T09:16:38.121Z,1.40
2022-09-22T09:19:10.987Z,1.27
2022-09-22T09:21:40.657Z,1.50
2022-09-22T09:27:12.851Z,1.45
2022-09-22T09:30:09.208Z,1.48
2022-09-22T09:32:49.149Z,1.20
2022-09-22T09:35:52.199Z,1.48
2022-09-22T09:38:44.527Z,1.20
2022-09-22T09:41:18.214Z,1.27
2022-09-22T09:43:45.531Z,1.15
2022-09-22T09:46:30.348Z,1.20
2022-09-22T09:49:00.254Z,1.15
2022-09-22T09:51:28.930Z,1.23
2022-09-22T09:53:57.454Z,1.23
2022-09-22T09:56:27.168Z,1.20
2022-09-22T09:59:27.259Z,1.05
2022-09-22T10:01:54.826Z,1.10
2022-09-22T10:04:27.881Z,1.52
2022-09-22T10:07:15.127Z,1.20
2022-09-22T10:09:42.910Z,1.42
2022-09-22T10:12:30.410Z,1.15
2022-09-22T10:14:59.331Z,1.10
2022-09-22T10:17:30.209Z,1.08
2022-09-22T10:20:26.363Z,1.48
2022-09-22T10:22:54.761Z,1.30
2022-09-22T10:25:24.926Z,1.15
2022-09-22T10:28:13.764Z,1.00
2022-09-22T10:30:43.127Z,1.00
2022-09-22T10:35:47.216Z,0.93
2022-09-22T10:38:27.004Z,0.90
2022-09-22T10:41:00.354Z,0.98
2022-09-22T10:43:37.236Z,0.90
2022-09-22T10:46:18.909Z,1.20
2022-09-22T10:49:00.855Z,1.30
2022-09-22T10:51:45.866Z,1.20
2022-09-22T10:54:41.872Z,1.42
2022-09-22T10:57:42.541Z,1.00
2022-09-22T11:00:16.366Z,1.20
2022-09-22T11:03:01.563Z,1.10
2022-09-22T11:06:05.434Z,1.00
2022-09-22T11:09:12.091Z,1.08
2022-09-22T11:12:13.364Z,1.15
2022-09-22T11:15:13.306Z,1.30
2022-09-22T11:18:04.421Z,0.90
2022-09-22T11:20:37.180Z,1.27
2022-09-22T11:23:25.619Z,1.00
2022-09-22T11:26:29.131Z,1.00
2022-09-22T11:29:20.926Z,1.00
2022-09-22T11:31:57.522Z,0.98
2022-09-22T11:34:26.756Z,1.23
2022-09-22T11:37:28.534Z,1.02
2022-09-22T11:40:21.972Z,1.10
2022-09-22T11:43:26.527Z,1.15
2022-09-22T11:46:30.150Z,1.00
2022-09-22T11:49:11.030Z,1.00
2022-09-22T11:52:12.742Z,0.90
2022-09-22T11:54:51.853Z,0.90
2022-09-22T11:57:23.892Z,1.08
2022-09-22T11:59:55.981Z,0.85
2022-09-22T12:02:35.484Z,0.80
2022-09-22T12:05:08.817Z,1.10
2022-09-22T12:07:45.895Z,0.82
2022-09-22T12:10:23.006Z,1.17
2022-09-22T12:12:51.802Z,0.90
2022-09-22T12:15:24.735Z,0.95
2022-09-22T12:18:13.878Z,1.02
2022-09-22T12:20:59.013Z,1.20
2022-09-22T12:23:41.429Z,1.05
2022-09-22T12:26:27.017Z,1.05
2022-09-22T12:28:54.598Z,1.00
2022-09-22T12:31:22.139Z,1.13
2022-09-22T12:33:55.940Z,1.00
2022-09-22T12:36:35.611Z,1.00
2022-09-22T12:39:20.206Z,0.90
2022-09-22T12:41:48.841Z,1.02
2022-09-22T12:44:28.742Z,1.10
2022-09-22T12:47:16.639Z,0.82
2022-09-22T12:50:02.910Z,1.23
2022-09-22T12:52:41.701Z,0.73
2022-09-22T12:55:38.116Z,1.05
2022-09-22T12:58:30.738Z,0.90
2022-09-22T13:01:38.689Z,0.85
2022-09-22T13:04:14.804Z,0.80
2022-09-22T13:06:41.353Z,1.15
2022-09-22T13:09:18.452Z,0.73
2022-09-22T13:12:13.053Z,1.00
2022-09-22T13:15:17.820Z,1.00
2022-09-22T13:17:53.988Z,0.80
2022-09-22T13:20:35.208Z,1.00
2022-09-22T13:23:12.534Z,0.90
2022-09-22T13:25:40.094Z,0.73
2022-09-22T13:28:17.023Z,1.00
2022-09-22T13:30:45.163Z,0.85
2022-09-22T13:33:25.825Z,0.75
2022-09-22T13:35:59.389Z,1.00
2022-09-22T13:38:26.453Z,1.15
2022-09-22T13:40:53.371Z,0.70
2022-09-22T13:43:33.203Z,0.90
2022-09-22T13:46:01.689Z,0.80
2022-09-22T13:48:33.690Z,0.70
2022-09-22T13:51:04.425Z,0.60
2022-09-22T13:53:32.104Z,0.85
2022-09-22T13:55:59.702Z,1.08
2022-09-22T13:58:38.765Z,0.88
2022-09-22T14:01:40.066Z,0.85
2022-09-22T14:04:21.657Z,0.80
2022-09-22T14:06:49.402Z,1.10
2022-09-22T14:09:16.284Z,0.68
2022-09-22T14:11:43.235Z,0.90
2022-09-22T14:14:24.505Z,0.85
2022-09-22T14:16:51.431Z,1.00
2022-09-22T14:19:33.967Z,0.77
2022-09-22T14:22:07.069Z,0.90
2022-09-22T14:24:37.754Z,0.75
2022-09-22T14:27:07.591Z,0.90
2022-09-22T14:29:40.781Z,0.90
2022-09-22T14:32:12.906Z,0.77
2022-09-22T14:34:40.670Z,0.60
2022-09-22T14:37:18.339Z,0.75
2022-09-22T14:39:45.195Z,0.90
2022-09-22T14:42:22.889Z,0.90
2022-09-22T14:44:51.268Z,0.90
2022-09-22T14:47:24.226Z,0.90
2022-09-22T14:50:06.789Z,0.90
2022-09-22T14:52:37.687Z,0.80
2022-09-22T14:55:35.991Z,0.90
2022-09-22T14:58:14.363Z,0.85
2022-09-22T15:01:17.781Z,0.80
2022-09-22T15:04:02.853Z,0.77
2022-09-22T15:06:39.896Z,0.70
2022-09-22T15:09:08.263Z,0.75
2022-09-22T15:11:53.206Z,1.15
2022-09-22T15:14:34.738Z,0.90
2022-09-22T15:17:21.418Z,0.68
2022-09-22T15:19:53.493Z,0.80
2022-09-22T15:22:20.148Z,0.90
2022-09-22T15:24:46.975Z,0.80
2022-09-22T15:27:17.862Z,0.90
2022-09-22T15:29:45.770Z,0.70
2022-09-22T15:32:12.949Z,0.90
2022-09-22T15:34:42.650Z,1.10
2022-09-22T15:37:25.090Z,0.63
2022-09-22T15:39:51.602Z,0.80
2022-09-22T15:42:18.336Z,0.93
2022-09-22T15:44:44.903Z,0.63
2022-09-22T15:47:17.014Z,0.70
2022-09-22T15:49:45.169Z,0.70
2022-09-22T15:52:11.807Z,0.80
2022-09-22T15:54:38.468Z,0.80
2022-09-22T15:57:05.700Z,0.80
2022-09-22T15:59:33.683Z,0.90
2022-09-22T16:02:00.662Z,0.70
2022-09-22T16:04:32.410Z,0.80
2022-09-22T16:07:04.000Z,0.77
2022-09-22T16:09:31.335Z,1.00
2022-09-22T16:11:58.027Z,0.73
2022-09-22T16:14:24.670Z,0.82
2022-09-22T16:16:52.329Z,0.85
2022-09-22T16:19:19.969Z,0.70
2022-09-22T16:21:56.731Z,0.70
2022-09-22T16:24:23.515Z,0.85
2022-09-22T16:26:51.845Z,0.85
2022-09-22T16:29:18.824Z,0.60
2022-09-22T16:31:45.600Z,0.80
2022-09-22T16:34:12.941Z,0.55
2022-09-22T16:36:41.590Z,0.70
2022-09-22T16:39:08.187Z,0.80
2022-09-22T16:41:36.100Z,1.10
2022-09-22T16:44:04.658Z,0.90
2022-09-22T16:46:38.303Z,0.90
2022-09-22T16:49:08.147Z,1.00
2022-09-22T16:51:40.922Z,1.10
2022-09-22T16:54:12.285Z,1.30
2022-09-22T16:56:39.867Z,1.02
2022-09-22T16:59:07.583Z,1.10
2022-09-22T17:01:36.916Z,1.40
2022-09-22T17:04:07.965Z,1.60
2022-09-22T17:06:36.158Z,1.67
2022-09-22T17:09:04.021Z,2.15
2022-09-22T17:11:34.502Z,2.28
2022-09-22T17:14:04.620Z,2.40
2022-09-22T17:16:34.104Z,2.70
2022-09-22T17:19:06.523Z,2.30
2022-09-22T17:21:35.620Z,3.30
2022-09-22T17:24:03.670Z,3.28
2022-09-22T17:26:33.025Z,2.85
2022-09-22T17:31:28.086Z,3.53
2022-09-22T17:33:55.079Z,3.47
2022-09-22T17:36:24.009Z,3.25
2022-09-22T17:38:52.926Z,3.10
2022-09-22T17:41:21.903Z,3.63
2022-09-22T17:43:57.444Z,3.35
2022-09-22T17:46:29.149Z,3.13
2022-09-22T17:49:14.563Z,3.20
2022-09-22T17:52:04.591Z,3.60
2022-09-22T17:54:58.446Z,3.70
2022-09-22T17:57:28.089Z,3.72
2022-09-22T17:59:56.410Z,3.50
2022-09-22T18:02:25.317Z,3.40
2022-09-22T18:04:52.208Z,3.58
2022-09-22T18:07:21.256Z,3.10
2022-09-22T18:09:49.698Z,3.60
2022-09-22T18:12:21.737Z,3.53
2022-09-22T18:14:53.226Z,3.55
2022-09-22T18:17:22.429Z,3.83
2022-09-22T18:19:49.015Z,3.22
2022-09-22T18:22:21.203Z,3.40
2022-09-22T18:24:55.277Z,3.55
2022-09-22T18:27:25.122Z,3.60
2022-09-22T18:29:52.040Z,3.63
2022-09-22T18:32:22.184Z,3.40
2022-09-22T18:34:52.943Z,3.30
2022-09-22T18:37:20.982Z,3.80
2022-09-22T18:39:50.287Z,3.47
2022-09-22T18:44:49.365Z,3.60
2022-09-22T18:47:18.588Z,3.10
2022-09-22T18:49:48.237Z,3.15
2022-09-22T18:52:22.904Z,3.10
2022-09-22T18:54:53.016Z,3.42
2022-09-22T18:57:21.695Z,3.15
2022-09-22T18:59:50.998Z,2.75
2022-09-22T19:02:22.335Z,3.17
2022-09-22T19:04:51.131Z,3.22
2022-09-22T19:07:41.108Z,2.72
2022-09-22T19:10:14.079Z,2.85
2022-09-22T19:12:40.807Z,3.25
2022-09-22T19:15:13.260Z,3.63
2022-09-22T19:17:44.131Z,3.03
2022-09-22T19:20:17.106Z,3.20
2022-09-22T19:22:44.862Z,3.15
2022-09-22T19:25:12.351Z,3.15
2022-09-22T19:27:40.070Z,2.75
2022-09-22T19:30:08.432Z,2.50
2022-09-22T19:32:35.437Z,2.58
2022-09-22T19:35:02.054Z,2.70
2022-09-22T19:37:29.315Z,3.25
2022-09-22T19:39:56.097Z,2.85
2022-09-22T19:42:22.860Z,3.55
2022-09-22T19:44:49.863Z,2.70
2022-09-22T19:47:16.593Z,2.83
2022-09-22T19:49:43.205Z,2.60
2022-09-22T19:52:11.137Z,2.85
2022-09-22T19:54:37.917Z,2.58
2022-09-22T19:57:04.905Z,2.67
2022-09-22T19:59:31.550Z,2.60
2022-09-22T20:01:58.417Z,2.80
2022-09-22T20:04:25.343Z,2.67
2022-09-22T20:06:52.036Z,2.50
2022-09-22T20:09:18.719Z,2.40
2022-09-22T20:11:48.380Z,2.58
2022-09-22T20:14:22.551Z,2.65
2022-09-22T20:16:55.108Z,2.65
2022-09-22T20:19:25.850Z,2.60
2022-09-22T20:22:07.665Z,2.53
2022-09-22T20:24:35.190Z,2.42
2022-09-22T20:27:02.030Z,2.38
2022-09-22T20:29:28.760Z,2.50
2022-09-22T20:31:55.523Z,2.35
2022-09-22T20:34:22.296Z,2.30
2022-09-22T20:36:48.913Z,2.35
2022-09-22T20:39:15.620Z,2.70
2022-09-22T20:41:43.241Z,2.33
2022-09-22T20:44:14.562Z,2.78
2022-09-22T20:46:47.245Z,2.38
2022-09-22T20:49:14.546Z,2.28
2022-09-22T20:51:42.205Z,2.13
2022-09-22T20:54:09.186Z,2.30
2022-09-22T20:56:39.438Z,2.50
2022-09-22T20:59:08.897Z,2.22
2022-09-22T21:01:35.697Z,2.30
2022-09-22T21:04:02.409Z,2.22
2022-09-22T21:06:30.855Z,2.20
2022-09-22T21:09:17.032Z,2.37
2022-09-22T21:11:44.128Z,2.38
2022-09-22T21:14:11.207Z,2.00
2022-09-22T21:16:39.938Z,2.28
2022-09-22T21:19:07.664Z,2.50
2022-09-22T21:21:38.655Z,2.10
2022-09-22T21:24:05.652Z,2.22
2022-09-22T21:26:33.103Z,2.20
2022-09-22T21:28:59.798Z,2.20
2022-09-22T21:31:27.421Z,2.10
2022-09-22T21:33:54.550Z,2.10
2022-09-22T21:36:25.182Z,2.20
2022-09-22T21:38:59.262Z,2.00
2022-09-22T21:41:30.571Z,2.15
2022-09-22T21:43:57.611Z,2.10
2022-09-22T21:46:29.842Z,2.30
2022-09-22T21:49:01.029Z,1.85
2022-09-22T21:51:36.242Z,1.85
2022-09-22T21:54:04.958Z,2.28
2022-09-22T21:56:33.642Z,1.83
2022-09-22T21:59:03.150Z,2.10
2022-09-22T22:01:32.441Z,2.20
2022-09-22T22:06:29.954Z,1.88
2022-09-22T22:09:04.425Z,2.00
2022-09-22T22:11:54.688Z,2.00
2022-09-22T22:14:23.062Z,1.70
2022-09-22T22:16:52.687Z,1.77
2022-09-22T22:19:21.635Z,1.83
2022-09-22T22:21:50.900Z,1.80
2022-09-22T22:24:31.725Z,1.65
2022-09-22T22:27:06.367Z,2.05
2022-09-22T22:29:38.464Z,1.90
2022-09-22T22:32:07.202Z,1.80
2022-09-22T22:34:34.373Z,1.85
2022-09-22T22:37:01.141Z,1.92
2022-09-22T22:39:27.921Z,1.85
2022-09-22T22:41:57.233Z,1.90
2022-09-22T22:46:50.673Z,1.80
2022-09-22T22:49:17.394Z,1.52
2022-09-22T22:51:44.311Z,1.88
2022-09-22T22:54:12.025Z,1.50
2022-09-22T22:56:42.072Z,1.70
2022-09-22T22:59:11.132Z,1.90
2022-09-22T23:01:38.546Z,1.80
2022-09-22T23:04:07.089Z,1.52
2022-09-22T23:06:39.475Z,1.73
2022-09-22T23:09:10.261Z,1.88
2022-09-22T23:11:40.071Z,1.73
2022-09-22T23:14:09.177Z,1.52
2022-09-22T23:16:43.231Z,1.55
2022-09-22T23:19:13.619Z,1.75
2022-09-22T23:21:40.626Z,1.48
2022-09-22T23:24:08.317Z,1.52
2022-09-22T23:26:35.008Z,1.60
2022-09-22T23:29:03.905Z,1.20
2022-09-22T23:31:31.626Z,1.80
2022-09-22T23:33:58.630Z,1.45
2022-09-22T23:36:28.471Z,1.52
2022-09-22T23:39:04.298Z,1.67
2022-09-22T23:41:33.110Z,1.65
2022-09-22T23:44:00.025Z,1.40
2022-09-22T23:46:26.710Z,1.58
2022-09-22T23:48:55.334Z,1.65
2022-09-22T23:51:22.145Z,1.33
2022-09-22T23:53:48.812Z,1.40
2022-09-22T23:56:15.525Z,1.45
2022-09-22T23:58:42.281Z,1.30
